Time;durP1;ratioP1;P1;durP2;ratioP2;P2;SDS_P1;SDS_P2;PMS_P1;PMS_P2;Temp;Humidity;BMP_temperature;BMP_pressure;BME280_temperature;BME280_humidity;BME280_pressure;Samples;Min_cycle;Max_cycle;Signal;HPM_P1;HPM_P2
2022/01/22 00:00:40;;;;;;;43.05;4.00;;;6.60;99.90;;;;;;4935382;28;20462;-64
2022/01/22 00:03:06;;;;;;;42.00;4.85;;;6.60;99.90;;;;;;4950922;28;20038;-64
2022/01/22 00:05:33;;;;;;;41.40;5.43;;;6.60;99.90;;;;;;4968404;28;20054;-64
2022/01/22 00:07:58;;;;;;;46.28;4.03;;;6.60;99.90;;;;;;4958283;28;20098;-64
2022/01/22 00:10:24;;;;;;;47.25;4.10;;;6.60;99.90;;;;;;4934612;28;20050;-64
2022/01/22 00:15:24;;;;;;;32.97;4.25;;;6.60;99.90;;;;;;4951925;28;20069;-64
2022/01/22 00:17:51;;;;;;;28.33;3.42;;;6.60;99.90;;;;;;4948926;28;20055;-64
2022/01/22 00:20:19;;;;;;;36.50;4.38;;;6.60;99.90;;;;;;4968837;28;20497;-64
2022/01/22 00:22:45;;;;;;;23.55;4.43;;;6.60;99.90;;;;;;4968160;28;20124;-64
2022/01/22 00:25:12;;;;;;;38.40;4.65;;;6.70;99.90;;;;;;4968585;28;20046;-64
2022/01/22 00:27:40;;;;;;;26.35;3.47;;;6.60;99.90;;;;;;4950437;28;20105;-64
2022/01/22 00:30:08;;;;;;;31.45;3.03;;;6.60;99.90;;;;;;4951287;28;20121;-64
2022/01/22 00:32:35;;;;;;;32.45;2.80;;;6.70;99.90;;;;;;4968141;28;20385;-64
2022/01/22 00:35:01;;;;;;;25.55;3.25;;;6.70;99.90;;;;;;4949094;28;20047;-64
2022/01/22 00:37:27;;;;;;;24.85;2.95;;;6.60;99.90;;;;;;4950579;28;20054;-64
2022/01/22 00:39:52;;;;;;;37.97;2.60;;;6.70;99.90;;;;;;4934402;28;20125;-64
2022/01/22 00:42:20;;;;;;;28.42;3.45;;;6.60;99.90;;;;;;4968575;28;20045;-63
2022/01/22 00:44:46;;;;;;;36.25;3.35;;;6.70;99.90;;;;;;4967626;28;20473;-64
2022/01/22 00:47:12;;;;;;;31.55;3.33;;;6.70;99.90;;;;;;4950033;28;20043;-64
2022/01/22 00:49:38;;;;;;;35.40;3.97;;;6.70;99.90;;;;;;4967624;28;20124;-64
2022/01/22 00:52:04;;;;;;;37.28;4.05;;;6.70;99.90;;;;;;4965954;28;20079;-64
2022/01/22 00:54:31;;;;;;;29.85;4.22;;;6.70;99.90;;;;;;4947798;28;20050;-64
2022/01/22 00:56:57;;;;;;;33.05;4.50;;;6.70;99.90;;;;;;4945226;28;20055;-64
2022/01/22 00:59:23;;;;;;;30.38;3.63;;;6.70;99.90;;;;;;4965590;28;20039;-64
2022/01/22 01:01:49;;;;;;;34.13;4.00;;;6.60;99.90;;;;;;4965444;28;20062;-64
2022/01/22 01:04:15;;;;;;;35.50;3.75;;;6.60;99.90;;;;;;4968782;28;20047;-64
2022/01/22 01:06:41;;;;;;;30.40;4.28;;;6.60;99.90;;;;;;4949787;28;20042;-64
2022/01/22 01:09:10;;;;;;;20.23;3.47;;;6.60;99.90;;;;;;4968628;28;20049;-64
2022/01/22 01:11:43;;;;;;;24.33;2.50;;;6.60;99.90;;;;;;4951124;28;20053;-64
2022/01/22 01:14:12;;;;;;;24.40;2.92;;;6.60;99.90;;;;;;4968441;28;20265;-64
2022/01/22 01:33:06;;;;;;;20.60;2.45;;;6.60;99.90;;;;;;4967604;28;20049;-64
2022/01/22 01:35:34;;;;;;;20.70;3.00;;;6.60;99.90;;;;;;4956087;28;20121;-64
2022/01/22 01:38:01;;;;;;;26.20;2.53;;;6.60;99.90;;;;;;4966959;28;20039;-64
2022/01/22 01:40:29;;;;;;;24.65;2.63;;;6.60;99.90;;;;;;4934406;28;20055;-64
2022/01/22 01:43:15;;;;;;;29.88;2.50;;;6.60;99.90;;;;;;4946815;29;20137;-64
2022/01/22 01:45:40;;;;;;;23.42;2.30;;;6.60;99.90;;;;;;4948284;28;20054;-64
2022/01/22 01:48:12;;;;;;;36.03;3.08;;;6.60;99.90;;;;;;4967895;28;20046;-64
2022/01/22 01:50:40;;;;;;;31.98;4.00;;;6.60;99.90;;;;;;4967905;28;20054;-64
2022/01/22 01:55:48;;;;;;;31.15;3.53;;;6.60;99.90;;;;;;4950009;28;20054;-64
2022/01/22 01:58:15;;;;;;;45.63;3.33;;;6.60;99.90;;;;;;4936365;28;20081;-64
2022/01/22 02:00:42;;;;;;;27.30;2.97;;;6.50;99.90;;;;;;4967110;28;20050;-64
2022/01/22 02:03:09;;;;;;;28.05;2.58;;;6.50;99.90;;;;;;4934215;28;20175;-64
2022/01/22 02:05:36;;;;;;;25.70;3.45;;;6.50;99.90;;;;;;4949986;28;20493;-64
2022/01/22 02:08:02;;;;;;;25.88;2.55;;;6.50;99.90;;;;;;4967415;28;20122;-64
2022/01/22 02:10:32;;;;;;;30.75;2.50;;;6.50;99.90;;;;;;4967165;28;20409;-64
2022/01/22 02:23:45;;;;;;;17.70;1.80;;;6.50;99.90;;;;;;4967322;28;20054;-64
2022/01/22 02:26:14;;;;;;;12.27;1.73;;;6.50;99.90;;;;;;4966089;28;20123;-64
2022/01/22 02:28:40;;;;;;;18.42;2.00;;;6.50;99.90;;;;;;4967274;28;20074;-64
2022/01/22 02:31:44;;;;;;;16.33;1.88;;;6.40;99.90;;;;;;4966847;28;20529;-64
2022/01/22 02:36:57;;;;;;;19.30;1.67;;;6.40;99.90;;;;;;4949467;28;20130;-64
2022/01/22 02:39:36;;;;;;;12.68;1.58;;;6.40;99.90;;;;;;4950023;28;20395;-64
2022/01/22 02:42:02;;;;;;;13.75;1.35;;;6.40;99.90;;;;;;4966630;28;20058;-64
2022/01/22 02:44:35;;;;;;;18.83;1.83;;;6.30;99.90;;;;;;4967183;28;20050;-64
2022/01/22 02:47:04;;;;;;;12.65;1.48;;;6.30;99.90;;;;;;4966364;28;20046;-63
2022/01/22 02:49:30;;;;;;;14.50;1.25;;;6.30;99.90;;;;;;4949333;28;20118;-64
2022/01/22 02:52:04;;;;;;;20.15;1.65;;;6.30;99.90;;;;;;4933465;28;20189;-64
2022/01/22 02:54:30;;;;;;;20.33;2.38;;;6.30;99.90;;;;;;4967043;28;20510;-64
2022/01/22 02:56:56;;;;;;;14.98;1.48;;;6.30;99.90;;;;;;4945849;29;20082;-64
2022/01/22 02:59:23;;;;;;;12.77;1.88;;;6.30;99.90;;;;;;4962693;28;20403;-64
2022/01/22 03:01:50;;;;;;;25.33;2.28;;;6.30;99.90;;;;;;4966401;28;20054;-64
2022/01/22 03:04:16;;;;;;;26.13;2.25;;;6.30;99.90;;;;;;4967361;28;20047;-64
2022/01/22 03:06:42;;;;;;;17.85;1.75;;;6.40;99.90;;;;;;4948919;28;20105;-64
2022/01/22 03:09:11;;;;;;;13.82;1.65;;;6.40;99.90;;;;;;4949292;28;20117;-64
2022/01/22 03:11:46;;;;;;;14.20;1.20;;;6.40;99.90;;;;;;4937059;28;20366;-64
2022/01/22 03:17:34;;;;;;;13.82;1.67;;;6.30;99.90;;;;;;4905283;29;20051;-64
2022/01/22 03:20:09;;;;;;;16.20;1.17;;;6.40;99.90;;;;;;4958459;28;20054;-64
2022/01/22 03:27:45;;;;;;;20.05;1.58;;;6.30;99.90;;;;;;4969074;28;20051;-64
2022/01/22 03:30:11;;;;;;;12.45;1.48;;;6.30;99.90;;;;;;4952320;28;20047;-64
2022/01/22 03:32:43;;;;;;;11.73;1.85;;;6.30;99.90;;;;;;4970108;28;20398;-64
2022/01/22 03:37:51;;;;;;;14.55;1.80;;;6.30;99.90;;;;;;4969474;28;20503;-64
2022/01/22 03:40:21;;;;;;;9.95;1.67;;;6.30;99.90;;;;;;4969943;28;20074;-64
2022/01/22 03:42:48;;;;;;;11.03;1.83;;;6.30;99.90;;;;;;4970008;28;20051;-64
2022/01/22 03:45:15;;;;;;;14.63;1.60;;;6.40;99.90;;;;;;4970102;28;20377;-64
2022/01/22 03:47:41;;;;;;;10.50;1.58;;;6.40;99.90;;;;;;4969631;28;20130;-64
2022/01/22 03:50:10;;;;;;;12.07;1.38;;;6.40;99.90;;;;;;4956862;28;20085;-64
2022/01/22 03:52:36;;;;;;;14.43;1.30;;;6.40;99.90;;;;;;4952507;28;20493;-64
2022/01/22 03:55:03;;;;;;;11.52;1.20;;;6.40;99.90;;;;;;4969287;28;20057;-64
2022/01/22 03:57:29;;;;;;;10.07;1.38;;;6.40;99.90;;;;;;4969888;28;20580;-64
2022/01/22 03:59:56;;;;;;;12.32;1.40;;;6.30;99.90;;;;;;4968958;28;20047;-64
2022/01/22 04:05:07;;;;;;;18.05;2.30;;;6.30;99.90;;;;;;4969435;28;20154;-64
2022/01/22 04:10:10;;;;;;;23.20;2.25;;;6.40;99.90;;;;;;4968988;28;20490;-64
2022/01/22 04:12:53;;;;;;;17.75;1.83;;;6.30;99.90;;;;;;4969611;28;20039;-64
2022/01/22 04:15:23;;;;;;;14.85;1.83;;;6.40;99.90;;;;;;4969344;28;20532;-64
2022/01/22 04:25:50;;;;;;;17.00;1.25;;;6.30;99.90;;;;;;4969280;28;20133;-64
2022/01/22 04:28:16;;;;;;;12.63;1.70;;;6.30;99.90;;;;;;4968819;28;20042;-64
2022/01/22 04:30:42;;;;;;;13.15;1.90;;;6.30;99.90;;;;;;4968770;28;20090;-64
2022/01/22 04:33:08;;;;;;;15.93;1.45;;;6.30;99.90;;;;;;4950758;28;20104;-64
2022/01/22 04:35:34;;;;;;;18.02;1.77;;;6.30;99.90;;;;;;4969041;28;20401;-64
2022/01/22 04:38:00;;;;;;;14.40;1.20;;;6.30;99.90;;;;;;4968762;28;20053;-64
2022/01/22 04:40:26;;;;;;;14.93;1.45;;;6.30;99.90;;;;;;4950973;28;20051;-64
2022/01/22 04:42:51;;;;;;;15.30;1.17;;;6.30;99.90;;;;;;4951606;28;20059;-64
2022/01/22 04:45:27;;;;;;;14.85;1.25;;;6.40;99.90;;;;;;4968727;28;20047;-64
2022/01/22 04:55:34;;;;;;;18.45;1.77;;;6.30;99.90;;;;;;4951315;28;20563;-64
2022/01/22 04:58:03;;;;;;;14.43;1.48;;;6.30;99.90;;;;;;4967072;28;20525;-64
2022/01/22 05:00:33;;;;;;;14.10;1.27;;;6.30;99.90;;;;;;4934955;28;20051;-64
2022/01/22 05:03:00;;;;;;;13.07;1.33;;;6.30;99.90;;;;;;4950494;28;20078;-64
2022/01/22 05:05:26;;;;;;;12.55;0.95;;;6.30;99.90;;;;;;4968387;28;20126;-64
2022/01/22 05:07:52;;;;;;;14.10;1.13;;;6.30;99.90;;;;;;4951285;28;20137;-64
2022/01/22 05:10:18;;;;;;;11.63;1.52;;;6.30;99.90;;;;;;4950365;28;20047;-64
2022/01/22 05:12:44;;;;;;;15.05;1.33;;;6.30;99.90;;;;;;4950808;28;20117;-64
2022/01/22 05:15:10;;;;;;;9.45;1.38;;;6.30;99.90;;;;;;4950488;28;20129;-64
2022/01/22 05:17:39;;;;;;;10.88;0.93;;;6.30;99.90;;;;;;4968186;28;20054;-64
2022/01/22 05:20:58;;;;;;;14.93;1.20;;;6.30;99.90;;;;;;4950526;28;20054;-64
2022/01/22 05:23:06;;;;;;;10.88;1.40;;;6.30;99.90;;;;;;4960134;28;20219;-64
2022/01/22 05:38:27;;;;;;;27.42;2.30;;;6.30;99.90;;;;;;4955127;28;20138;-64
2022/01/22 05:40:53;;;;;;;11.10;1.27;;;6.30;99.90;;;;;;4967221;28;20106;-64
2022/01/22 05:43:19;;;;;;;9.02;0.95;;;6.30;99.90;;;;;;4966703;28;20054;-64
2022/01/22 05:45:44;;;;;;;9.85;0.98;;;6.30;99.90;;;;;;4968084;28;20393;-64
2022/01/22 05:48:10;;;;;;;8.20;0.70;;;6.30;99.90;;;;;;4964937;28;20034;-64
2022/01/22 05:50:58;;;;;;;9.75;1.00;;;6.40;99.90;;;;;;4951676;28;20405;-64
2022/01/22 06:01:21;;;;;;;33.83;3.90;;;6.40;99.90;;;;;;4964258;28;20281;-64
2022/01/22 06:03:47;;;;;;;30.73;4.07;;;6.40;99.90;;;;;;4960336;28;20045;-64
2022/01/22 06:06:13;;;;;;;30.45;3.72;;;6.40;99.90;;;;;;4959013;28;20522;-64
2022/01/22 06:08:45;;;;;;;16.45;2.78;;;6.40;99.90;;;;;;4946971;28;20122;-64
2022/01/22 06:11:12;;;;;;;16.70;2.58;;;6.40;99.90;;;;;;4961822;28;20105;-64
2022/01/22 06:13:45;;;;;;;21.55;2.08;;;6.40;99.90;;;;;;4949906;28;20105;-64
2022/01/22 06:16:12;;;;;;;26.23;3.05;;;6.40;99.90;;;;;;4967072;28;20062;-64
2022/01/22 06:18:38;;;;;;;19.27;2.20;;;6.40;99.90;;;;;;4949534;28;20098;-64
2022/01/22 06:21:05;;;;;;;17.70;1.60;;;6.40;99.90;;;;;;4949149;28;20054;-64
2022/01/22 06:23:31;;;;;;;9.18;1.17;;;6.40;99.90;;;;;;4950179;28;20757;-64
2022/01/22 06:26:00;;;;;;;8.02;1.75;;;6.50;99.90;;;;;;4967350;28;20043;-64
2022/01/22 06:28:29;;;;;;;13.27;1.33;;;6.50;99.90;;;;;;4966901;28;20046;-64
2022/01/22 06:30:58;;;;;;;14.95;1.40;;;6.50;99.90;;;;;;4967229;28;20193;-64
2022/01/22 06:33:24;;;;;;;11.07;2.10;;;6.50;99.90;;;;;;4966307;28;20367;-64
2022/01/22 06:35:50;;;;;;;24.27;3.05;;;6.50;99.90;;;;;;4973814;28;20047;-64
2022/01/22 06:38:17;;;;;;;23.95;2.92;;;6.50;99.90;;;;;;4966748;28;20037;-64
2022/01/22 06:43:28;;;;;;;17.00;2.17;;;6.50;99.90;;;;;;4967112;28;20050;-64
2022/01/22 06:45:54;;;;;;;17.30;2.28;;;6.50;99.90;;;;;;4971570;28;20066;-65
2022/01/22 06:48:20;;;;;;;32.55;2.75;;;6.40;99.90;;;;;;4953034;28;20153;-64
2022/01/22 06:50:46;;;;;;;24.70;2.63;;;6.50;99.90;;;;;;4970678;28;20553;-64
2022/01/22 06:53:12;;;;;;;24.30;2.97;;;6.50;99.90;;;;;;4970334;28;20046;-64
2022/01/22 06:55:50;;;;;;;26.25;3.80;;;6.50;99.90;;;;;;4971109;28;20043;-64
2022/01/22 06:58:15;;;;;;;27.48;3.40;;;6.40;99.90;;;;;;4953165;28;20395;-64
2022/01/22 07:00:41;;;;;;;31.42;3.20;;;6.40;99.90;;;;;;4970250;28;20102;-64
2022/01/22 07:03:07;;;;;;;30.67;3.45;;;6.40;99.90;;;;;;4970509;28;20146;-64
2022/01/22 07:05:33;;;;;;;22.95;4.10;;;6.40;99.90;;;;;;4952887;28;20043;-64
2022/01/22 07:07:59;;;;;;;32.05;4.10;;;6.40;99.90;;;;;;4970639;28;20039;-64
2022/01/22 07:10:24;;;;;;;35.38;4.35;;;6.40;99.90;;;;;;4952055;28;20043;-64
2022/01/22 07:12:50;;;;;;;44.60;5.47;;;6.40;99.90;;;;;;4952806;28;20043;-64
2022/01/22 07:15:16;;;;;;;35.47;4.00;;;6.40;99.90;;;;;;4952853;28;20042;-64
2022/01/22 07:17:43;;;;;;;42.28;5.55;;;6.40;99.90;;;;;;4970894;28;20074;-64
2022/01/22 07:20:20;;;;;;;34.75;4.13;;;6.40;99.90;;;;;;4953086;28;20544;-64
2022/01/22 07:22:52;;;;;;;22.20;2.60;;;6.40;99.90;;;;;;4970362;28;20058;-64
2022/01/22 07:25:18;;;;;;;23.33;4.50;;;6.40;99.90;;;;;;4951884;28;20054;-64
2022/01/22 07:27:44;;;;;;;16.08;3.03;;;6.50;99.90;;;;;;4970196;28;20049;-64
2022/01/22 07:30:11;;;;;;;8.13;1.85;;;6.40;99.90;;;;;;4969732;28;20051;-64
2022/01/22 07:32:41;;;;;;;9.77;1.77;;;6.40;99.90;;;;;;4970333;28;20063;-64
2022/01/22 07:35:08;;;;;;;17.48;2.53;;;6.40;99.90;;;;;;4952622;28;20059;-64
2022/01/22 07:37:35;;;;;;;13.90;2.28;;;6.40;99.90;;;;;;4952743;28;20051;-64
2022/01/22 07:40:02;;;;;;;9.35;1.75;;;6.30;99.90;;;;;;4970170;28;20622;-65
2022/01/22 07:42:28;;;;;;;8.07;1.05;;;6.30;99.90;;;;;;4969038;28;20054;-64
2022/01/22 07:44:54;;;;;;;9.45;0.95;;;6.30;99.90;;;;;;4970276;28;20061;-64
2022/01/22 07:47:20;;;;;;;9.88;1.13;;;6.30;99.90;;;;;;4952166;28;20146;-64
2022/01/22 07:49:45;;;;;;;6.75;1.40;;;6.20;99.90;;;;;;4936125;28;20051;-64
2022/01/22 07:52:11;;;;;;;8.23;1.30;;;6.20;99.90;;;;;;4950336;28;20058;-64
2022/01/22 07:54:37;;;;;;;8.40;1.30;;;6.20;99.90;;;;;;4970064;28;20153;-64
2022/01/22 07:57:03;;;;;;;13.20;2.20;;;6.20;99.90;;;;;;4969140;28;20034;-64
2022/01/22 07:59:30;;;;;;;14.05;1.65;;;6.20;99.90;;;;;;4952205;28;20170;-64
2022/01/22 08:01:56;;;;;;;13.82;1.80;;;6.20;99.90;;;;;;4966525;28;20410;-64
2022/01/22 08:04:25;;;;;;;14.23;1.25;;;6.20;99.90;;;;;;4966830;28;20050;-64
2022/01/22 08:06:52;;;;;;;11.77;1.10;;;6.20;99.90;;;;;;4950683;28;20079;-64
2022/01/22 08:09:21;;;;;;;11.82;1.38;;;6.10;99.90;;;;;;4967564;28;20438;-64
2022/01/22 08:11:48;;;;;;;10.48;1.30;;;6.10;99.90;;;;;;4970464;28;20487;-64
2022/01/22 08:14:14;;;;;;;15.15;1.35;;;6.20;99.90;;;;;;4956266;28;20098;-64
2022/01/22 08:16:40;;;;;;;14.23;1.13;;;6.10;99.90;;;;;;4954024;28;20565;-64
2022/01/22 08:19:06;;;;;;;10.80;1.30;;;6.20;99.90;;;;;;4924204;28;20460;-64
2022/01/22 08:21:32;;;;;;;12.10;1.48;;;6.20;99.90;;;;;;4936186;28;20122;-64
2022/01/22 08:23:58;;;;;;;15.00;1.17;;;6.20;99.90;;;;;;4968107;28;20127;-64
2022/01/22 08:26:29;;;;;;;13.73;1.08;;;6.20;99.90;;;;;;4966860;28;20035;-64
2022/01/22 08:28:57;;;;;;;15.15;1.50;;;6.20;99.90;;;;;;4959169;28;20047;-64
2022/01/22 08:36:44;;;;;;;8.00;1.00;;;6.20;99.90;;;;;;4967411;28;20449;-64
2022/01/22 08:39:10;;;;;;;10.18;0.70;;;6.20;99.90;;;;;;4956785;28;20042;-64
2022/01/22 08:41:36;;;;;;;7.70;1.27;;;6.20;99.90;;;;;;4950022;28;20055;-64
2022/01/22 08:44:03;;;;;;;12.35;1.17;;;6.20;99.90;;;;;;4951424;28;20129;-64
2022/01/22 08:46:29;;;;;;;12.73;0.93;;;6.20;99.90;;;;;;4968074;28;20485;-64
2022/01/22 08:48:55;;;;;;;16.45;1.42;;;6.20;99.90;;;;;;4950414;28;20126;-64
2022/01/22 08:51:21;;;;;;;14.23;1.70;;;6.20;99.90;;;;;;4957048;28;20434;-64
2022/01/22 08:53:50;;;;;;;9.65;1.48;;;6.20;99.90;;;;;;4935939;28;20114;-64
2022/01/22 08:56:17;;;;;;;11.27;1.25;;;6.20;99.90;;;;;;4951305;28;20039;-64
2022/01/22 08:58:44;;;;;;;11.73;1.35;;;6.20;99.90;;;;;;4965499;28;20050;-64
2022/01/22 09:01:10;;;;;;;16.33;1.50;;;6.20;99.90;;;;;;4949678;28;20053;-64
2022/01/22 09:03:36;;;;;;;10.57;1.63;;;6.20;99.90;;;;;;4975321;28;20097;-64
2022/01/22 09:06:05;;;;;;;13.93;1.73;;;6.20;99.90;;;;;;4968037;28;20047;-64
2022/01/22 09:08:31;;;;;;;15.27;1.73;;;6.10;99.90;;;;;;4943022;28;20157;-64
2022/01/22 09:10:57;;;;;;;14.95;2.30;;;6.20;99.90;;;;;;4966422;28;20504;-64
2022/01/22 09:13:24;;;;;;;20.60;1.52;;;6.20;99.90;;;;;;4946495;28;20058;-64
2022/01/22 09:15:51;;;;;;;15.77;1.38;;;6.20;99.90;;;;;;4961381;28;20475;-64
2022/01/22 09:18:17;;;;;;;15.43;2.13;;;6.20;99.90;;;;;;4963338;28;20540;-64
2022/01/22 09:20:55;;;;;;;18.92;1.65;;;6.20;99.90;;;;;;4960807;28;20795;-64
2022/01/22 09:23:21;;;;;;;19.10;1.60;;;6.20;99.90;;;;;;4957439;28;20054;-64
2022/01/22 09:25:48;;;;;;;13.65;1.48;;;6.20;99.90;;;;;;4960879;28;20051;-64
2022/01/22 09:28:14;;;;;;;15.07;2.08;;;6.20;99.90;;;;;;4943171;28;20154;-64
2022/01/22 09:30:41;;;;;;;13.57;1.52;;;6.30;99.90;;;;;;4949122;28;20119;-64
2022/01/22 09:33:07;;;;;;;27.50;2.95;;;6.30;99.90;;;;;;4936736;29;20046;-64
2022/01/22 09:35:33;;;;;;;29.13;6.63;;;6.30;99.90;;;;;;4961875;28;20038;-64
2022/01/22 09:37:59;;;;;;;27.73;5.38;;;6.30;99.90;;;;;;4960594;28;20047;-64
2022/01/22 09:40:37;;;;;;;23.92;3.63;;;6.40;99.90;;;;;;5089844;27;20471;-64
2022/01/22 09:43:03;;;;;;;26.30;5.93;;;6.40;99.90;;;;;;5071569;28;20490;-64
2022/01/22 09:45:29;;;;;;;28.33;4.03;;;6.40;99.90;;;;;;5066928;28;20102;-65
2022/01/22 09:47:58;;;;;;;23.27;2.60;;;6.40;99.90;;;;;;5071827;28;20490;-65
2022/01/22 09:50:26;;;;;;;23.63;2.58;;;6.50;99.90;;;;;;5071012;28;20488;-64
2022/01/22 09:52:53;;;;;;;15.93;2.08;;;6.50;99.90;;;;;;5069876;28;20434;-64
2022/01/22 09:55:19;;;;;;;18.42;2.33;;;6.70;99.90;;;;;;5067195;28;20083;-64
2022/01/22 09:57:45;;;;;;;14.65;1.88;;;6.70;99.90;;;;;;5105531;28;20064;-64
2022/01/22 10:00:18;;;;;;;14.25;1.20;;;6.70;99.90;;;;;;5102267;28;20115;-64
2022/01/22 10:02:48;;;;;;;9.95;1.02;;;6.80;99.90;;;;;;5063344;28;20451;-64
2022/01/22 10:05:26;;;;;;;4.95;0.43;;;6.80;99.90;;;;;;5078359;28;20048;-64
2022/01/22 10:07:53;;;;;;;11.27;1.60;;;6.80;99.90;;;;;;5097831;28;20048;-64
2022/01/22 10:10:21;;;;;;;11.52;1.10;;;6.80;99.90;;;;;;5078997;28;20036;-64
2022/01/22 10:12:51;;;;;;;19.23;4.63;;;6.80;99.90;;;;;;5080362;28;20036;-64
2022/01/22 10:15:20;;;;;;;14.48;1.67;;;6.80;99.90;;;;;;5097040;28;20087;-65
2022/01/22 10:17:48;;;;;;;11.07;1.90;;;6.80;99.90;;;;;;5081227;28;20036;-64
2022/01/22 10:20:28;;;;;;;6.32;1.30;;;6.80;99.90;;;;;;5080061;28;20048;-65
2022/01/22 10:23:04;;;;;;;14.52;1.95;;;6.80;99.90;;;;;;5081514;28;20045;-64
2022/01/22 10:25:38;;;;;;;12.05;2.83;;;6.80;99.90;;;;;;5079767;28;20079;-64
2022/01/22 10:28:17;;;;;;;6.45;1.50;;;6.80;99.90;;;;;;5080004;28;20120;-64
2022/01/22 10:30:45;;;;;;;35.97;7.20;;;6.80;99.90;;;;;;5079408;28;20083;-64
2022/01/22 10:33:30;;;;;;;15.55;4.38;;;6.80;99.90;;;;;;5081471;28;20032;-64
2022/01/22 10:36:15;;;;;;;9.35;2.42;;;6.80;99.90;;;;;;5059046;28;20048;-64
2022/01/22 10:38:46;;;;;;;23.52;5.55;;;6.90;99.90;;;;;;5068299;28;20121;-64
2022/01/22 10:41:15;;;;;;;22.23;6.20;;;6.90;99.90;;;;;;5081946;28;20044;-64
2022/01/22 10:43:50;;;;;;;11.57;1.80;;;6.90;99.90;;;;;;5073782;28;20399;-64
2022/01/22 10:46:31;;;;;;;9.40;1.83;;;7.00;99.90;;;;;;5077447;28;20040;-64
2022/01/22 10:49:14;;;;;;;5.13;0.52;;;7.00;99.90;;;;;;5081630;28;20568;-64
2022/01/22 10:51:56;;;;;;;3.22;0.50;;;7.00;99.90;;;;;;5067753;28;20098;-64
2022/01/22 10:54:30;;;;;;;3.47;0.50;;;7.10;99.90;;;;;;5068851;28;20403;-64
2022/01/22 10:57:12;;;;;;;4.05;0.55;;;7.10;99.90;;;;;;5068180;28;20047;-64
2022/01/22 10:59:45;;;;;;;7.57;0.80;;;7.10;99.90;;;;;;5077667;28;20048;-64
2022/01/22 11:02:12;;;;;;;3.88;0.60;;;7.20;99.90;;;;;;5067897;28;20036;-64
2022/01/22 11:04:37;;;;;;;3.95;0.65;;;7.20;99.90;;;;;;5083075;28;20055;-64
2022/01/22 11:07:08;;;;;;;5.57;0.75;;;7.10;99.90;;;;;;5069253;28;20033;-64
2022/01/22 11:09:34;;;;;;;8.50;0.82;;;7.10;99.90;;;;;;5068418;28;20044;-64
2022/01/22 11:12:03;;;;;;;8.82;0.90;;;7.10;99.90;;;;;;5079121;28;20043;-64
2022/01/22 11:14:32;;;;;;;9.80;2.95;;;7.20;99.90;;;;;;5069582;28;20132;-64
2022/01/22 11:17:01;;;;;;;24.63;6.82;;;7.30;99.90;;;;;;5067655;28;20059;-64
2022/01/22 11:19:32;;;;;;;30.83;12.02;;;7.40;99.90;;;;;;5068515;28;20790;-64
2022/01/22 11:22:06;;;;;;;17.33;8.23;;;7.40;99.90;;;;;;5068337;28;20501;-64
2022/01/22 11:24:35;;;;;;;14.43;7.00;;;7.40;99.90;;;;;;5075744;28;20368;-64
2022/01/22 11:27:03;;;;;;;19.10;5.88;;;7.40;99.90;;;;;;5056972;28;20056;-65
2022/01/22 11:29:36;;;;;;;10.73;2.78;;;7.50;99.90;;;;;;5049165;28;20433;-64
2022/01/22 11:32:06;;;;;;;10.38;2.55;;;7.50;99.90;;;;;;5062593;28;20134;-64
2022/01/22 11:34:35;;;;;;;7.65;1.27;;;7.50;99.90;;;;;;5038292;28;20037;-64
2022/01/22 11:37:16;;;;;;;4.20;0.80;;;7.50;99.90;;;;;;5063870;28;20041;-64
2022/01/22 11:39:42;;;;;;;6.07;1.05;;;7.70;99.90;;;;;;5062204;28;20094;-64
2022/01/22 11:42:09;;;;;;;6.25;1.00;;;7.80;99.90;;;;;;5060552;28;20497;-64
2022/01/22 11:44:49;;;;;;;5.07;0.80;;;7.80;99.90;;;;;;5046901;28;20101;-64
2022/01/22 11:47:19;;;;;;;6.07;0.90;;;7.80;99.90;;;;;;5062460;28;20047;-64
2022/01/22 11:50:06;;;;;;;9.27;1.10;;;7.80;99.90;;;;;;5031860;28;20048;-64
2022/01/22 11:52:37;;;;;;;4.03;0.70;;;7.70;99.90;;;;;;5065116;28;20101;-64
2022/01/22 11:55:15;;;;;;;9.60;2.38;;;7.60;99.90;;;;;;5066086;28;20041;-65
2022/01/22 11:57:42;;;;;;;7.65;2.17;;;7.60;99.90;;;;;;5064611;28;20549;-65
2022/01/22 12:00:29;;;;;;;9.35;1.73;;;7.50;99.90;;;;;;5072448;28;20570;-64
2022/01/22 12:03:03;;;;;;;8.52;1.70;;;7.50;99.90;;;;;;5057108;28;20052;-64
2022/01/22 12:05:32;;;;;;;8.90;1.27;;;7.50;99.90;;;;;;5056202;28;20198;-64
2022/01/22 12:07:59;;;;;;;10.15;1.38;;;7.50;99.90;;;;;;5062485;28;20047;-64
2022/01/22 12:10:42;;;;;;;9.75;1.40;;;7.40;99.90;;;;;;5083174;28;20438;-64
2022/01/22 12:16:38;;;;;;;12.63;1.52;;;7.40;99.90;;;;;;5060459;28;20486;-64
2022/01/22 12:19:09;;;;;;;17.10;1.40;;;7.30;99.90;;;;;;5052088;28;20372;-64
2022/01/22 12:21:37;;;;;;;7.25;2.05;;;7.30;99.90;;;;;;5063890;28;20048;-64
2022/01/22 12:24:10;;;;;;;7.47;0.95;;;7.20;99.90;;;;;;5059128;28;20041;-64
2022/01/22 12:26:40;;;;;;;9.18;1.10;;;7.20;99.90;;;;;;5052368;28;20646;-64
2022/01/22 12:29:24;;;;;;;;;;;7.10;99.90;;;;;;5054349;28;20048;-64
2022/01/22 12:32:07;;;;;;;4.90;1.10;;;7.10;99.90;;;;;;5059881;28;19920;-64
2022/01/22 12:34:57;;;;;;;14.02;1.17;;;7.10;99.90;;;;;;5058071;28;20060;-64
2022/01/22 12:37:23;;;;;;;11.60;1.40;;;7.10;99.90;;;;;;5060648;28;20142;-64
2022/01/22 12:39:54;;;;;;;5.90;0.95;;;7.00;99.90;;;;;;5059355;28;20146;-64
2022/01/22 12:42:31;;;;;;;9.57;2.45;;;7.00;99.90;;;;;;5057075;28;20125;-64
2022/01/22 12:45:06;;;;;;;14.52;3.05;;;7.00;99.90;;;;;;5058512;28;20052;-64
2022/01/22 12:47:33;;;;;;;28.17;7.65;;;7.00;99.90;;;;;;5052756;28;20052;-64
2022/01/22 12:50:05;;;;;;;10.15;3.67;;;7.00;99.90;;;;;;5054147;28;20045;-64
2022/01/22 12:52:33;;;;;;;13.10;2.63;;;7.10;99.90;;;;;;5056938;28;20048;-64
2022/01/22 12:55:25;;;;;;;9.45;2.13;;;7.10;99.90;;;;;;5081519;28;20513;-64
2022/01/22 12:57:50;;;;;;;10.18;2.83;;;7.00;99.90;;;;;;5053551;28;20079;-64
2022/01/22 13:00:18;;;;;;;13.93;3.00;;;7.00;99.90;;;;;;5061378;28;20110;-64
2022/01/22 13:02:50;;;;;;;12.30;2.53;;;7.00;99.90;;;;;;5063686;28;20028;-64
2022/01/22 13:05:18;;;;;;;11.70;2.88;;;7.00;99.90;;;;;;5055621;28;20119;-64
2022/01/22 13:07:52;;;;;;;22.48;4.90;;;7.00;99.90;;;;;;5053346;28;20040;-64
2022/01/22 13:10:20;;;;;;;23.95;8.20;;;7.00;99.90;;;;;;5071499;28;20078;-64
2022/01/22 13:12:46;;;;;;;20.40;6.82;;;7.10;99.90;;;;;;5070186;28;20045;-64
2022/01/22 13:15:17;;;;;;;13.23;3.45;;;7.10;99.90;;;;;;5076126;28;20076;-64
2022/01/22 13:17:51;;;;;;;18.23;4.75;;;7.00;99.90;;;;;;5063737;28;20475;-64
2022/01/22 13:20:23;;;;;;;31.80;6.55;;;7.00;99.90;;;;;;5068261;28;20502;-64
2022/01/22 13:22:49;;;;;;;32.17;7.30;;;7.10;99.90;;;;;;5066473;28;20046;-64
2022/01/22 13:25:15;;;;;;;30.85;5.85;;;7.20;99.90;;;;;;5066592;28;20079;-64
2022/01/22 13:27:43;;;;;;;16.60;3.08;;;7.10;99.90;;;;;;5087398;28;20044;-64
2022/01/22 13:30:12;;;;;;;11.40;1.80;;;7.20;99.90;;;;;;5064220;28;20052;-64
2022/01/22 13:32:56;;;;;;;10.38;2.22;;;7.20;99.90;;;;;;5070715;28;20063;-64
2022/01/22 13:35:30;;;;;;;13.45;1.92;;;7.20;99.90;;;;;;5065353;28;20110;-64
2022/01/22 13:49:25;;;;;;;16.90;2.65;;;7.00;99.90;;;;;;5065774;28;20094;-64
2022/01/22 13:51:52;;;;;;;14.13;2.53;;;7.10;99.90;;;;;;5074147;28;20040;-64
2022/01/22 13:54:18;;;;;;;19.40;3.70;;;7.00;99.90;;;;;;5073679;28;20036;-64
2022/01/22 13:56:53;;;;;;;24.27;4.25;;;7.00;99.90;;;;;;5067759;28;20055;-64
2022/01/22 13:59:22;;;;;;;21.42;3.78;;;7.00;99.90;;;;;;5066558;28;20596;-64
2022/01/22 14:02:03;;;;;;;23.75;4.72;;;7.00;99.90;;;;;;5065027;28;20502;-64
2022/01/22 14:04:55;;;;;;;19.90;2.90;;;7.00;99.90;;;;;;5066547;28;20526;-64
2022/01/22 14:07:31;;;;;;;17.25;4.05;;;6.90;99.90;;;;;;5061351;28;20033;-64
2022/01/22 14:10:12;;;;;;;23.48;6.63;;;7.00;99.90;;;;;;5047701;28;20055;-64
2022/01/22 14:15:42;;;;;;;46.63;13.02;;;6.90;99.90;;;;;;5045172;28;20048;-64
2022/01/22 14:20:37;;;;;;;38.70;16.52;;;6.90;99.90;;;;;;5067428;28;20040;-64
2022/01/22 14:23:13;;;;;;;43.88;13.75;;;6.80;99.90;;;;;;5066460;28;20293;-64
2022/01/22 14:26:02;;;;;;;30.00;9.43;;;6.80;99.90;;;;;;5078864;28;20040;-64
2022/01/22 14:28:48;;;;;;;31.50;11.15;;;6.80;99.90;;;;;;5058695;28;20079;-64
2022/01/22 14:31:17;;;;;;;39.67;10.88;;;6.80;99.90;;;;;;5068104;28;20043;-64
2022/01/22 14:33:43;;;;;;;32.67;8.82;;;6.80;99.90;;;;;;5070636;28;20051;-64
2022/01/22 14:36:13;;;;;;;33.65;8.35;;;6.80;99.90;;;;;;5073203;28;20072;-64
2022/01/22 14:38:53;;;;;;;32.03;9.45;;;6.80;99.90;;;;;;5100037;28;20083;-64
2022/01/22 14:46:55;;;;;;;19.92;3.85;;;6.80;99.90;;;;;;5081362;28;20047;-64
2022/01/22 14:49:29;;;;;;;20.20;3.28;;;6.90;99.90;;;;;;5074715;28;20556;-64
2022/01/22 14:51:56;;;;;;;14.02;3.45;;;6.90;99.90;;;;;;5100422;28;20452;-64
2022/01/22 14:54:25;;;;;;;14.73;2.03;;;6.90;99.90;;;;;;5062865;28;20044;-64
2022/01/22 14:56:52;;;;;;;10.43;2.30;;;6.90;99.90;;;;;;5064183;28;20044;-64
2022/01/22 14:59:19;;;;;;;14.75;2.45;;;6.90;99.90;;;;;;5039810;28;20041;-64
2022/01/22 15:01:45;;;;;;;16.13;2.85;;;6.90;99.90;;;;;;5085673;28;20079;-64